Last 24 Hours

UH Manoa Atmospheric Sciences

15 Minute Data | Pacific/Honolulu
as of 1/29/22 2:38 AM HST
Station Date Time Temp (°F) RH (%) Dew Pt (°F) Wind Spd (mph) Wind Dir (°) Wind Gust (mph) Latest Rain (In) Solar Rad (W/m2) Heat Index (°F) Barometric Press (inHg) Daily Rain (In) Daily Min Temp (°F) Daily Max Temp (°F) Daily Max Wind (mph)
UH Manoa Atmospheric Sciences 1/29/22 0230 74.9 69 64.2 6.4 ENE | 68 14.5 0.00 0 74.9 30.10 0.00 73.8 75.3 14.5
UH Manoa Atmospheric Sciences 1/29/22 0215 74.9 71 64.8 4.4 ENE | 73 11.2 0.00 0 74.9 30.11 0.00 73.8 75.3 11.3
UH Manoa Atmospheric Sciences 1/29/22 0200 75.0 71 65.0 4.6 ENE | 67 9.1 0.00 0 75.0 30.11 0.00 73.8 75.3 11.3
UH Manoa Atmospheric Sciences 1/29/22 0145 74.9 72 65.2 4.3 ENE | 62 8.9 0.00 0 74.9 30.11 0.00 73.8 75.1 11.3
UH Manoa Atmospheric Sciences 1/29/22 0130 74.9 72 65.4 3.7 ENE | 69 9.1 0.00 0 74.9 30.12 0.00 73.8 75.1 11.3
UH Manoa Atmospheric Sciences 1/29/22 0115 74.6 73 65.6 5.2 ENE | 71 11.3 0.00 0 74.6 30.12 0.00 73.8 74.8 11.3
UH Manoa Atmospheric Sciences 1/29/22 0100 74.4 75 66.1 4.6 ENE | 59 9.8 0.00 0 74.4 30.12 0.00 73.8 74.8 9.8
UH Manoa Atmospheric Sciences 1/29/22 0045 74.1 77 66.4 1.0 ENE | 63 4.3 0.00 0 74.1 30.12 0.00 73.8 74.5 4.4
UH Manoa Atmospheric Sciences 1/29/22 0030 74.0 78 66.6 1.7 E | 85 4.4 0.00 0 74.0 30.12 0.00 73.8 74.5 4.4
UH Manoa Atmospheric Sciences 1/29/22 0015 73.9 78 66.7 0.5 N | 4 2.5 0.00 0 73.9 30.12 0.00 73.8 74.2 2.5
UH Manoa Atmospheric Sciences 1/29/22 0000 73.9 78 66.6 0.4 NNE | 33 2.8 0.00 0 73.9 30.13 0.00 66.6 83.4 14.8
UH Manoa Atmospheric Sciences 1/28/22 2345 74.0 78 66.5 0.3 NE | 42 1.9 0.00 0 74.0 30.13 0.00 66.6 83.4 14.8
UH Manoa Atmospheric Sciences 1/28/22 2330 73.9 78 66.6 0.5 E | 98 2.2 0.00 0 73.9 30.13 0.00 66.6 83.4 14.8
UH Manoa Atmospheric Sciences 1/28/22 2315 74.0 78 66.6 0.4 N | 6 2.8 0.00 0 74.0 30.13 0.00 66.6 83.4 14.8
UH Manoa Atmospheric Sciences 1/28/22 2300 73.9 78 66.5 0.3 ESE | 115 1.8 0.00 0 73.9 30.13 0.00 66.6 83.4 14.8
UH Manoa Atmospheric Sciences 1/28/22 2245 74.3 77 66.8 1.2 NE | 48 3.6 0.00 0 74.3 30.13 0.00 66.6 83.4 14.8
UH Manoa Atmospheric Sciences 1/28/22 2230 74.2 77 66.5 0.6 NNW | 338 2.7 0.00 0 74.2 30.13 0.00 66.6 83.4 14.8
UH Manoa Atmospheric Sciences 1/28/22 2215 74.4 77 66.7 0.5 ENE | 77 2.8 0.00 0 74.4 30.13 0.00 66.6 83.4 14.8
UH Manoa Atmospheric Sciences 1/28/22 2200 74.5 77 66.7 4.3 NE | 38 7.3 0.00 0 74.5 30.13 0.00 66.6 83.4 14.8
UH Manoa Atmospheric Sciences 1/28/22 2145 74.6 76 66.5 3.1 NNE | 29 6.3 0.00 0 74.6 30.13 0.00 66.6 83.4 14.8
UH Manoa Atmospheric Sciences 1/28/22 2130 74.6 76 66.5 3.0 NE | 53 6.6 0.00 0 74.6 30.13 0.00 66.6 83.4 14.8
UH Manoa Atmospheric Sciences 1/28/22 2115 74.6 75 66.3 4.6 NE | 44 8.4 0.00 0 74.6 30.13 0.00 66.6 83.4 14.8
UH Manoa Atmospheric Sciences 1/28/22 2100 74.6 74 65.8 3.1 NE | 53 6.8 0.00 0 74.6 30.13 0.00 66.6 83.4 14.8
UH Manoa Atmospheric Sciences 1/28/22 2045 74.3 74 65.7 3.6 NNE | 26 8.0 0.00 0 74.3 30.12 0.00 66.6 83.4 14.8
UH Manoa Atmospheric Sciences 1/28/22 2030 73.8 76 65.6 2.2 N | 5 7.2 0.00 0 73.8 30.12 0.00 66.6 83.4 14.8
UH Manoa Atmospheric Sciences 1/28/22 2015 74.0 75 65.7 1.8 NNE | 12 5.0 0.00 0 74.0 30.10 0.00 66.6 83.4 14.8
UH Manoa Atmospheric Sciences 1/28/22 2000 74.1 75 65.8 3.6 NE | 34 6.1 0.00 0 74.1 30.08 0.00 66.6 83.4 14.8
UH Manoa Atmospheric Sciences 1/28/22 1945 74.4 74 65.8 4.0 NNE | 32 6.4 0.00 0 74.4 30.07 0.00 66.6 83.4 14.8
UH Manoa Atmospheric Sciences 1/28/22 1930 74.5 74 65.7 2.3 NE | 48 4.9 0.00 0 74.5 30.06 0.00 66.6 83.4 14.8
UH Manoa Atmospheric Sciences 1/28/22 1915 74.7 74 65.9 2.5 NE | 52 4.8 0.00 0 74.7 30.06 0.00 66.6 83.4 14.8
UH Manoa Atmospheric Sciences 1/28/22 1900 75.1 73 66.0 3.5 NE | 46 6.4 0.00 0 75.1 30.06 0.00 66.6 83.4 14.8
UH Manoa Atmospheric Sciences 1/28/22 1845 75.6 72 66.0 2.8 NE | 55 6.6 0.00 0 75.6 30.06 0.00 66.6 83.4 14.8
UH Manoa Atmospheric Sciences 1/28/22 1830 76.4 71 66.2 3.8 NE | 45 8.3 0.00 1 76.4 30.06 0.00 66.6 83.4 14.8
UH Manoa Atmospheric Sciences 1/28/22 1815 76.8 70 66.2 2.8 ENE | 68 6.4 0.00 10 76.8 30.06 0.00 66.6 83.4 14.8
UH Manoa Atmospheric Sciences 1/28/22 1800 77.0 68 65.9 3.1 ENE | 69 7.5 0.00 33 77.0 30.06 0.00 66.6 83.4 14.8
UH Manoa Atmospheric Sciences 1/28/22 1745 77.2 69 66.5 2.7 E | 79 6.1 0.00 60 77.2 30.06 0.00 66.6 83.4 14.8
UH Manoa Atmospheric Sciences 1/28/22 1730 77.3 69 66.4 2.4 E | 94 6.9 0.00 59 77.3 30.06 0.00 66.6 83.4 14.8
UH Manoa Atmospheric Sciences 1/28/22 1715 77.8 67 66.1 2.6 ESE | 112 12.7 0.00 123 77.8 30.05 0.00 66.6 83.4 14.8
UH Manoa Atmospheric Sciences 1/28/22 1700 78.5 64 65.5 2.7 ESE | 105 8.2 0.00 253 78.5 30.05 0.00 66.6 83.4 14.8
UH Manoa Atmospheric Sciences 1/28/22 1645 78.9 63 65.0 3.1 ESE | 110 10.2 0.00 328 78.9 30.05 0.00 66.6 83.4 14.8
UH Manoa Atmospheric Sciences 1/28/22 1630 79.0 61 64.2 3.6 E | 93 10.3 0.00 379 79.0 30.04 0.00 66.6 83.4 14.8
UH Manoa Atmospheric Sciences 1/28/22 1615 79.4 61 65.0 2.7 E | 100 7.5 0.00 424 79.4 30.03 0.00 66.6 83.4 14.8
UH Manoa Atmospheric Sciences 1/28/22 1600 78.8 64 65.5 4.1 E | 84 10.4 0.00 481 78.8 30.03 0.00 66.6 83.4 14.8
UH Manoa Atmospheric Sciences 1/28/22 1545 78.6 66 66.1 5.1 E | 91 12.5 0.00 529 78.6 30.03 0.00 66.6 83.4 14.8
UH Manoa Atmospheric Sciences 1/28/22 1530 79.3 63 65.6 4.2 E | 101 10.1 0.00 573 79.7 30.03 0.00 66.6 83.4 14.8
UH Manoa Atmospheric Sciences 1/28/22 1515 79.8 59 64.3 3.6 ESE | 107 9.6 0.00 614 80.3 30.04 0.00 66.6 83.4 14.8
UH Manoa Atmospheric Sciences 1/28/22 1500 80.3 56 63.1 4.3 E | 100 12.2 0.00 653 81.3 30.03 0.00 66.6 83.4 14.8
UH Manoa Atmospheric Sciences 1/28/22 1445 80.0 56 62.8 4.4 ESE | 103 14.7 0.00 687 80.9 30.03 0.00 66.6 83.4 14.8
UH Manoa Atmospheric Sciences 1/28/22 1430 80.5 57 63.6 5.3 E | 90 14.8 0.00 719 81.7 30.03 0.00 66.6 83.4 14.8
UH Manoa Atmospheric Sciences 1/28/22 1415 81.5 58 65.3 4.0 E | 98 10.6 0.00 745 83.4 30.04 0.00 66.6 83.4 14.1
UH Manoa Atmospheric Sciences 1/28/22 1400 80.7 61 65.9 4.1 ESE | 107 13.1 0.00 766 82.7 30.04 0.00 66.6 83.4 14.1
UH Manoa Atmospheric Sciences 1/28/22 1345 82.3 55 64.6 4.0 ENE | 74 12.5 0.00 782 84.0 30.05 0.00 66.6 83.4 14.1
UH Manoa Atmospheric Sciences 1/28/22 1330 82.6 52 63.1 2.7 ENE | 61 7.8 0.00 799 83.8 30.06 0.00 66.6 83.4 14.1
UH Manoa Atmospheric Sciences 1/28/22 1315 81.4 53 62.6 4.8 NE | 53 8.9 0.00 808 82.5 30.07 0.00 66.6 83.2 14.1
UH Manoa Atmospheric Sciences 1/28/22 1300 81.7 53 62.8 4.0 NE | 39 9.6 0.00 812 82.9 30.08 0.00 66.6 83.2 14.1
UH Manoa Atmospheric Sciences 1/28/22 1245 80.9 55 63.2 6.4 NE | 43 14.1 0.00 813 82.3 30.09 0.00 66.6 82.6 14.1
UH Manoa Atmospheric Sciences 1/28/22 1230 79.5 58 63.6 6.4 NE | 45 13.1 0.00 811 79.8 30.10 0.00 66.6 81.6 13.1
UH Manoa Atmospheric Sciences 1/28/22 1215 79.4 61 64.9 6.7 NE | 37 12.8 0.00 822 79.5 30.10 0.00 66.6 81.6 12.8
UH Manoa Atmospheric Sciences 1/28/22 1200 79.3 61 64.5 6.4 NE | 41 11.2 0.00 703 79.3 30.11 0.00 66.6 81.6 11.6
UH Manoa Atmospheric Sciences 1/28/22 1145 80.1 60 64.7 5.1 NE | 45 11.6 0.00 846 81.2 30.13 0.00 66.6 81.6 11.6
UH Manoa Atmospheric Sciences 1/28/22 1130 80.3 60 65.3 2.0 NE | 49 7.8 0.00 810 81.8 30.14 0.00 66.6 81.6 8.3
UH Manoa Atmospheric Sciences 1/28/22 1115 77.8 65 65.2 2.9 N | 8 6.6 0.00 693 77.8 30.15 0.00 66.6 78.9 8.3
UH Manoa Atmospheric Sciences 1/28/22 1100 76.6 70 66.2 1.8 ESE | 107 6.9 0.00 172 76.6 30.16 0.00 66.6 78.7 8.3
UH Manoa Atmospheric Sciences 1/28/22 1045 77.2 70 66.7 3.5 NE | 55 7.8 0.00 208 77.2 30.17 0.00 66.6 78.7 8.3
UH Manoa Atmospheric Sciences 1/28/22 1030 77.5 69 66.6 3.9 NE | 44 8.2 0.00 452 77.5 30.17 0.00 66.6 78.7 8.3
UH Manoa Atmospheric Sciences 1/28/22 1015 76.8 70 66.4 4.8 ENE | 60 8.3 0.00 563 76.8 30.17 0.00 66.6 77.4 8.3
UH Manoa Atmospheric Sciences 1/28/22 1000 76.6 71 66.6 2.8 ENE | 67 6.3 0.00 503 76.6 30.17 0.00 66.6 77.4 8.0
UH Manoa Atmospheric Sciences 1/28/22 0945 76.4 73 67.2 1.6 ENE | 62 4.8 0.00 444 76.4 30.18 0.00 66.6 77.4 8.0
UH Manoa Atmospheric Sciences 1/28/22 0930 74.4 77 66.7 0.3 ESE | 115 1.7 0.00 435 74.4 30.18 0.00 66.6 75.7 8.0
UH Manoa Atmospheric Sciences 1/28/22 0915 73.0 79 66.2 1.3 NE | 46 4.4 0.00 225 73.0 30.17 0.00 66.6 73.7 8.0
UH Manoa Atmospheric Sciences 1/28/22 0900 72.2 82 66.4 1.7 NE | 47 3.7 0.00 330 72.2 30.17 0.00 66.6 73.1 8.0
UH Manoa Atmospheric Sciences 1/28/22 0845 70.5 84 65.4 2.2 NE | 40 3.8 0.00 290 70.5 30.16 0.00 66.6 71.3 8.0
UH Manoa Atmospheric Sciences 1/28/22 0830 69.6 85 65.0 1.2 ENE | 58 4.0 0.00 234 69.6 30.16 0.00 66.6 70.5 8.0
UH Manoa Atmospheric Sciences 1/28/22 0815 68.0 86 63.7 1.8 NE | 39 4.3 0.00 137 68.0 30.16 0.00 66.6 70.5 8.0
UH Manoa Atmospheric Sciences 1/28/22 0800 67.5 85 62.9 1.5 N | 1 3.5 0.00 33 67.5 30.15 0.00 66.6 70.5 8.0
UH Manoa Atmospheric Sciences 1/28/22 0745 67.1 85 62.5 1.3 NE | 45 3.4 0.00 23 67.1 30.15 0.00 66.6 70.5 8.0
UH Manoa Atmospheric Sciences 1/28/22 0730 67.2 84 62.2 2.2 ENE | 57 4.4 0.00 10 67.2 30.14 0.00 66.6 70.5 8.0
UH Manoa Atmospheric Sciences 1/28/22 0715 67.3 84 62.2 3.2 NE | 37 6.1 0.00 1 67.3 30.14 0.00 66.7 70.5 8.0
UH Manoa Atmospheric Sciences 1/28/22 0700 67.1 83 61.9 4.4 NE | 36 6.9 0.00 0 67.1 30.13 0.00 66.7 70.5 8.0
UH Manoa Atmospheric Sciences 1/28/22 0645 67.0 84 62.0 3.8 NNE | 30 7.0 0.00 0 67.0 30.13 0.00 66.7 70.5 8.0
UH Manoa Atmospheric Sciences 1/28/22 0630 67.0 84 61.8 3.6 NNE | 32 5.8 0.00 0 67.0 30.13 0.00 66.7 70.5 8.0
UH Manoa Atmospheric Sciences 1/28/22 0615 67.1 84 62.1 3.0 NE | 34 5.1 0.00 0 67.1 30.13 0.00 66.7 70.5 8.0
UH Manoa Atmospheric Sciences 1/28/22 0600 66.9 84 62.1 3.6 NE | 35 5.8 0.00 0 66.9 30.13 0.00 66.7 70.5 8.0
UH Manoa Atmospheric Sciences 1/28/22 0545 67.0 84 62.2 3.2 NNE | 33 5.9 0.00 0 67.0 30.13 0.00 66.8 70.5 8.0
UH Manoa Atmospheric Sciences 1/28/22 0530 67.0 85 62.2 4.1 NNE | 32 7.3 0.00 0 67.0 30.12 0.00 66.8 70.5 8.0
UH Manoa Atmospheric Sciences 1/28/22 0515 67.4 84 62.4 3.5 NNE | 31 6.6 0.00 0 67.4 30.12 0.00 67.0 70.5 8.0
UH Manoa Atmospheric Sciences 1/28/22 0500 67.6 85 62.8 3.5 NNE | 24 5.6 0.00 0 67.6 30.12 0.00 67.2 70.5 8.0
UH Manoa Atmospheric Sciences 1/28/22 0445 67.4 86 63.0 3.4 NNE | 30 6.8 0.00 0 67.4 30.12 0.00 67.2 70.5 8.0
UH Manoa Atmospheric Sciences 1/28/22 0430 67.6 86 63.3 3.4 NNE | 33 6.9 0.00 0 67.6 30.12 0.00 67.3 70.5 8.0
UH Manoa Atmospheric Sciences 1/28/22 0415 68.0 86 63.6 3.2 NE | 35 5.6 0.00 0 68.0 30.12 0.00 67.7 70.5 8.0
UH Manoa Atmospheric Sciences 1/28/22 0400 68.2 86 63.8 2.6 NNE | 17 4.8 0.00 0 68.2 30.12 0.00 68.0 70.5 8.0
UH Manoa Atmospheric Sciences 1/28/22 0345 68.3 86 63.8 2.5 NNE | 22 3.7 0.00 0 68.3 30.12 0.00 68.1 70.5 8.0
UH Manoa Atmospheric Sciences 1/28/22 0330 68.5 86 64.2 2.8 NNE | 26 4.2 0.00 0 68.5 30.12 0.00 68.1 70.5 8.0
UH Manoa Atmospheric Sciences 1/28/22 0315 68.5 86 64.3 3.2 NE | 39 5.4 0.00 0 68.5 30.12 0.00 68.1 70.5 8.0
UH Manoa Atmospheric Sciences 1/28/22 0300 68.9 87 64.8 3.7 NNE | 28 5.7 0.00 0 68.9 30.12 0.00 68.7 70.5 8.0
UH Manoa Atmospheric Sciences 1/28/22 0245 69.0 87 65.0 3.5 NNE | 33 6.2 0.00 0 69.0 30.13 0.00 68.8 70.5 8.0
UH Manoa Atmospheric Sciences 1/28/22 0230 69.0 86 64.9 3.6 NE | 39 6.2 0.00 0 69.0 30.13 0.00 68.8 70.5 8.0
Max     82.6 87 67.2 6.7 - 14.8 0.00 846 84.0 30.18 0.00 73.8 83.4 14.8
Avg     74.3 73 64.9 3.1 - 7.2 0.00 208 74.5 30.11 - - - -
Min     66.9 52 61.8 0.3 - 1.7 0.00 0 66.9 30.03 0.00 66.6 70.5 2.5